Balmedie, United Kingdom
Current Conditions -  °F | °C
As of 4:50 PM on Thursday 27 Nov 2014 (Local Time) from EGPD Reporting Station
Light Rain Light Rain  
Wind Chill:   Ceiling: 3300
Heat Index:   Visibility: 4mi
Dew Point:   Wind: 6mph
Humidity: 100%   Direction: 120°ESE
Pressure: 29.62"   Gusts: NA
Location:  57.25°N, 2.06°W
Report Text: EGPD 271650Z 12005KT 090V150 6000 -RADZ SCT005 SCT016 BKN033 09/09 Q1003 TEMPO 4000 RADZ BKN010
Loading
Personal Weather Stations






























Interactive Weather Map New forecast layout! Learn more

10-Day Weather Forecast

Advertisements
Track Severe Weather on mobile